sensor_id;sensor_type;location;lat;lon;timestamp;P1;durP1;ratioP1;P2;durP2;ratioP2
78895;SDS011;68284;59.124;37.910;2023-07-31T00:00:54;69.97;;;27.63;;
78895;SDS011;68284;59.124;37.910;2023-07-31T00:03:20;68.20;;;27.55;;
78895;SDS011;68284;59.124;37.910;2023-07-31T00:05:46;69.60;;;26.60;;
78895;SDS011;68284;59.124;37.910;2023-07-31T00:08:14;57.10;;;25.58;;
78895;SDS011;68284;59.124;37.910;2023-07-31T00:10:40;54.33;;;23.05;;
78895;SDS011;68284;59.124;37.910;2023-07-31T00:13:06;62.75;;;26.63;;
78895;SDS011;68284;59.124;37.910;2023-07-31T00:15:34;62.80;;;28.48;;
78895;SDS011;68284;59.124;37.910;2023-07-31T00:18:00;96.80;;;39.67;;
78895;SDS011;68284;59.124;37.910;2023-07-31T00:20:27;103.90;;;39.83;;
78895;SDS011;68284;59.124;37.910;2023-07-31T00:22:53;86.88;;;31.85;;
78895;SDS011;68284;59.124;37.910;2023-07-31T00:25:20;65.80;;;26.98;;
78895;SDS011;68284;59.124;37.910;2023-07-31T00:27:46;63.15;;;26.58;;
78895;SDS011;68284;59.124;37.910;2023-07-31T00:30:12;37.35;;;17.10;;
78895;SDS011;68284;59.124;37.910;2023-07-31T00:32:38;41.65;;;16.35;;
78895;SDS011;68284;59.124;37.910;2023-07-31T00:35:05;39.75;;;18.42;;
78895;SDS011;68284;59.124;37.910;2023-07-31T00:37:31;40.65;;;18.50;;
78895;SDS011;68284;59.124;37.910;2023-07-31T00:39:57;49.20;;;19.25;;
78895;SDS011;68284;59.124;37.910;2023-07-31T00:42:24;54.80;;;22.60;;
78895;SDS011;68284;59.124;37.910;2023-07-31T00:44:50;52.78;;;24.13;;
78895;SDS011;68284;59.124;37.910;2023-07-31T00:47:17;87.70;;;37.55;;
78895;SDS011;68284;59.124;37.910;2023-07-31T00:49:43;71.03;;;27.05;;
78895;SDS011;68284;59.124;37.910;2023-07-31T00:52:10;92.70;;;38.05;;
78895;SDS011;68284;59.124;37.910;2023-07-31T00:54:36;113.07;;;43.28;;
78895;SDS011;68284;59.124;37.910;2023-07-31T00:57:02;103.38;;;40.42;;
78895;SDS011;68284;59.124;37.910;2023-07-31T00:59:31;93.18;;;37.10;;
78895;SDS011;68284;59.124;37.910;2023-07-31T01:01:57;87.07;;;38.60;;
78895;SDS011;68284;59.124;37.910;2023-07-31T01:04:23;78.93;;;29.98;;
78895;SDS011;68284;59.124;37.910;2023-07-31T01:06:59;78.68;;;32.80;;
78895;SDS011;68284;59.124;37.910;2023-07-31T01:12:14;86.10;;;32.67;;
78895;SDS011;68284;59.124;37.910;2023-07-31T01:17:41;83.55;;;32.28;;
78895;SDS011;68284;59.124;37.910;2023-07-31T01:20:11;71.82;;;32.50;;
78895;SDS011;68284;59.124;37.910;2023-07-31T01:31:21;55.75;;;26.17;;
78895;SDS011;68284;59.124;37.910;2023-07-31T01:33:50;77.90;;;32.17;;
78895;SDS011;68284;59.124;37.910;2023-07-31T01:36:20;58.55;;;26.90;;
78895;SDS011;68284;59.124;37.910;2023-07-31T01:38:46;76.25;;;31.50;;
78895;SDS011;68284;59.124;37.910;2023-07-31T01:41:12;94.30;;;33.38;;
78895;SDS011;68284;59.124;37.910;2023-07-31T01:43:39;68.32;;;29.17;;
78895;SDS011;68284;59.124;37.910;2023-07-31T01:46:05;85.40;;;37.22;;
78895;SDS011;68284;59.124;37.910;2023-07-31T01:48:32;83.53;;;31.48;;
78895;SDS011;68284;59.124;37.910;2023-07-31T01:51:01;75.20;;;29.98;;
78895;SDS011;68284;59.124;37.910;2023-07-31T01:53:28;68.80;;;29.25;;
78895;SDS011;68284;59.124;37.910;2023-07-31T01:55:56;50.13;;;25.55;;
78895;SDS011;68284;59.124;37.910;2023-07-31T01:58:22;53.08;;;24.67;;
78895;SDS011;68284;59.124;37.910;2023-07-31T02:00:49;48.92;;;28.00;;
78895;SDS011;68284;59.124;37.910;2023-07-31T02:03:15;49.65;;;22.38;;
78895;SDS011;68284;59.124;37.910;2023-07-31T02:05:45;51.10;;;24.38;;
78895;SDS011;68284;59.124;37.910;2023-07-31T02:08:14;49.90;;;24.35;;
78895;SDS011;68284;59.124;37.910;2023-07-31T02:10:42;44.58;;;23.83;;
78895;SDS011;68284;59.124;37.910;2023-07-31T02:13:10;43.35;;;23.10;;
78895;SDS011;68284;59.124;37.910;2023-07-31T02:15:36;44.25;;;20.15;;
78895;SDS011;68284;59.124;37.910;2023-07-31T02:18:02;37.92;;;19.95;;
78895;SDS011;68284;59.124;37.910;2023-07-31T02:20:29;42.63;;;20.88;;
78895;SDS011;68284;59.124;37.910;2023-07-31T02:22:56;40.30;;;17.50;;
78895;SDS011;68284;59.124;37.910;2023-07-31T02:25:22;37.22;;;18.08;;
78895;SDS011;68284;59.124;37.910;2023-07-31T02:27:48;30.08;;;16.38;;
78895;SDS011;68284;59.124;37.910;2023-07-31T02:30:15;36.63;;;16.60;;
78895;SDS011;68284;59.124;37.910;2023-07-31T02:32:41;35.03;;;15.82;;
78895;SDS011;68284;59.124;37.910;2023-07-31T02:35:08;45.50;;;19.45;;
78895;SDS011;68284;59.124;37.910;2023-07-31T02:37:34;50.60;;;19.63;;
78895;SDS011;68284;59.124;37.910;2023-07-31T02:40:09;54.83;;;23.00;;
78895;SDS011;68284;59.124;37.910;2023-07-31T02:42:37;51.80;;;22.20;;
78895;SDS011;68284;59.124;37.910;2023-07-31T02:45:04;83.90;;;34.50;;
78895;SDS011;68284;59.124;37.910;2023-07-31T02:47:31;80.97;;;30.90;;
78895;SDS011;68284;59.124;37.910;2023-07-31T02:49:58;65.30;;;28.80;;
78895;SDS011;68284;59.124;37.910;2023-07-31T02:54:58;76.75;;;30.05;;
78895;SDS011;68284;59.124;37.910;2023-07-31T02:57:28;79.20;;;31.45;;
78895;SDS011;68284;59.124;37.910;2023-07-31T02:59:54;84.45;;;30.98;;
78895;SDS011;68284;59.124;37.910;2023-07-31T03:02:21;82.55;;;34.58;;
78895;SDS011;68284;59.124;37.910;2023-07-31T03:04:48;97.07;;;33.22;;
78895;SDS011;68284;59.124;37.910;2023-07-31T03:07:16;90.70;;;35.50;;
78895;SDS011;68284;59.124;37.910;2023-07-31T03:09:46;88.82;;;33.88;;
78895;SDS011;68284;59.124;37.910;2023-07-31T03:12:13;75.28;;;30.92;;
78895;SDS011;68284;59.124;37.910;2023-07-31T03:14:39;85.95;;;29.77;;
78895;SDS011;68284;59.124;37.910;2023-07-31T03:17:11;84.90;;;30.92;;
78895;SDS011;68284;59.124;37.910;2023-07-31T03:19:38;80.55;;;24.52;;
78895;SDS011;68284;59.124;37.910;2023-07-31T03:22:04;80.82;;;31.33;;
78895;SDS011;68284;59.124;37.910;2023-07-31T03:24:31;79.45;;;31.67;;
78895;SDS011;68284;59.124;37.910;2023-07-31T03:26:57;83.90;;;29.30;;
78895;SDS011;68284;59.124;37.910;2023-07-31T03:29:24;78.63;;;27.75;;
78895;SDS011;68284;59.124;37.910;2023-07-31T03:31:53;84.90;;;31.25;;
78895;SDS011;68284;59.124;37.910;2023-07-31T03:34:21;80.03;;;29.63;;
78895;SDS011;68284;59.124;37.910;2023-07-31T03:36:48;73.05;;;29.63;;
78895;SDS011;68284;59.124;37.910;2023-07-31T03:39:14;71.38;;;26.98;;
78895;SDS011;68284;59.124;37.910;2023-07-31T03:41:41;72.10;;;28.27;;
78895;SDS011;68284;59.124;37.910;2023-07-31T03:44:07;75.85;;;25.20;;
78895;SDS011;68284;59.124;37.910;2023-07-31T03:46:33;68.22;;;28.42;;
78895;SDS011;68284;59.124;37.910;2023-07-31T03:49:00;78.05;;;26.15;;
78895;SDS011;68284;59.124;37.910;2023-07-31T03:51:26;78.00;;;29.00;;
78895;SDS011;68284;59.124;37.910;2023-07-31T03:53:52;66.05;;;24.65;;
78895;SDS011;68284;59.124;37.910;2023-07-31T03:56:19;63.08;;;27.35;;
78895;SDS011;68284;59.124;37.910;2023-07-31T03:58:45;61.95;;;26.05;;
78895;SDS011;68284;59.124;37.910;2023-07-31T04:01:11;59.00;;;30.10;;
78895;SDS011;68284;59.124;37.910;2023-07-31T04:03:37;63.33;;;29.40;;
78895;SDS011;68284;59.124;37.910;2023-07-31T04:06:03;63.88;;;30.15;;
78895;SDS011;68284;59.124;37.910;2023-07-31T04:08:30;63.90;;;31.27;;
78895;SDS011;68284;59.124;37.910;2023-07-31T04:10:56;74.78;;;33.20;;
78895;SDS011;68284;59.124;37.910;2023-07-31T04:13:22;69.03;;;29.85;;
78895;SDS011;68284;59.124;37.910;2023-07-31T04:15:51;57.50;;;27.73;;
78895;SDS011;68284;59.124;37.910;2023-07-31T04:18:17;56.45;;;23.38;;
78895;SDS011;68284;59.124;37.910;2023-07-31T04:20:44;57.25;;;26.58;;
78895;SDS011;68284;59.124;37.910;2023-07-31T04:23:10;52.80;;;22.77;;
78895;SDS011;68284;59.124;37.910;2023-07-31T04:25:36;69.85;;;24.92;;
78895;SDS011;68284;59.124;37.910;2023-07-31T04:28:03;66.55;;;24.55;;
78895;SDS011;68284;59.124;37.910;2023-07-31T04:30:30;88.20;;;33.47;;
78895;SDS011;68284;59.124;37.910;2023-07-31T04:32:57;79.53;;;27.35;;
78895;SDS011;68284;59.124;37.910;2023-07-31T04:35:23;70.82;;;27.15;;
78895;SDS011;68284;59.124;37.910;2023-07-31T04:37:51;58.78;;;24.30;;
78895;SDS011;68284;59.124;37.910;2023-07-31T04:40:17;58.25;;;24.50;;
78895;SDS011;68284;59.124;37.910;2023-07-31T04:42:47;62.53;;;23.80;;
78895;SDS011;68284;59.124;37.910;2023-07-31T04:45:13;60.97;;;21.35;;
78895;SDS011;68284;59.124;37.910;2023-07-31T04:47:40;51.97;;;20.50;;
78895;SDS011;68284;59.124;37.910;2023-07-31T04:50:07;54.67;;;22.25;;
78895;SDS011;68284;59.124;37.910;2023-07-31T04:52:34;50.70;;;23.80;;
78895;SDS011;68284;59.124;37.910;2023-07-31T04:55:01;50.33;;;24.70;;
78895;SDS011;68284;59.124;37.910;2023-07-31T04:57:34;53.97;;;23.20;;
78895;SDS011;68284;59.124;37.910;2023-07-31T05:00:03;75.35;;;37.08;;
78895;SDS011;68284;59.124;37.910;2023-07-31T05:02:33;54.42;;;28.45;;
78895;SDS011;68284;59.124;37.910;2023-07-31T05:08:34;63.40;;;30.90;;
78895;SDS011;68284;59.124;37.910;2023-07-31T05:11:01;70.50;;;29.40;;
78895;SDS011;68284;59.124;37.910;2023-07-31T05:13:29;65.88;;;28.55;;
78895;SDS011;68284;59.124;37.910;2023-07-31T05:15:57;75.47;;;31.15;;
78895;SDS011;68284;59.124;37.910;2023-07-31T05:18:28;71.47;;;29.65;;
78895;SDS011;68284;59.124;37.910;2023-07-31T05:21:02;63.28;;;27.35;;
78895;SDS011;68284;59.124;37.910;2023-07-31T05:23:29;51.83;;;24.17;;
78895;SDS011;68284;59.124;37.910;2023-07-31T05:26:05;41.70;;;20.60;;
78895;SDS011;68284;59.124;37.910;2023-07-31T05:28:33;49.85;;;24.10;;
78895;SDS011;68284;59.124;37.910;2023-07-31T05:31:00;43.05;;;19.20;;
78895;SDS011;68284;59.124;37.910;2023-07-31T05:33:27;14.23;;;6.75;;
78895;SDS011;68284;59.124;37.910;2023-07-31T05:35:55;23.00;;;10.73;;
78895;SDS011;68284;59.124;37.910;2023-07-31T05:38:22;23.25;;;11.77;;
78895;SDS011;68284;59.124;37.910;2023-07-31T05:40:49;31.65;;;12.82;;
78895;SDS011;68284;59.124;37.910;2023-07-31T05:43:15;11.52;;;4.40;;
78895;SDS011;68284;59.124;37.910;2023-07-31T05:45:45;11.95;;;4.03;;
78895;SDS011;68284;59.124;37.910;2023-07-31T05:48:14;16.23;;;6.45;;
78895;SDS011;68284;59.124;37.910;2023-07-31T05:50:41;11.57;;;5.28;;
78895;SDS011;68284;59.124;37.910;2023-07-31T05:53:12;12.40;;;5.47;;
78895;SDS011;68284;59.124;37.910;2023-07-31T05:55:38;6.75;;;4.40;;
78895;SDS011;68284;59.124;37.910;2023-07-31T05:58:04;17.35;;;10.55;;
78895;SDS011;68284;59.124;37.910;2023-07-31T06:00:30;25.45;;;12.90;;
78895;SDS011;68284;59.124;37.910;2023-07-31T06:02:57;11.98;;;6.50;;
78895;SDS011;68284;59.124;37.910;2023-07-31T06:05:24;22.05;;;12.85;;
78895;SDS011;68284;59.124;37.910;2023-07-31T06:07:51;12.88;;;5.97;;
78895;SDS011;68284;59.124;37.910;2023-07-31T06:10:19;8.45;;;4.78;;
78895;SDS011;68284;59.124;37.910;2023-07-31T06:12:46;10.02;;;5.10;;
78895;SDS011;68284;59.124;37.910;2023-07-31T06:15:13;8.90;;;4.50;;
78895;SDS011;68284;59.124;37.910;2023-07-31T06:17:41;6.22;;;3.47;;
78895;SDS011;68284;59.124;37.910;2023-07-31T06:20:09;7.18;;;3.80;;
78895;SDS011;68284;59.124;37.910;2023-07-31T06:22:36;5.35;;;3.15;;
78895;SDS011;68284;59.124;37.910;2023-07-31T06:25:02;6.72;;;3.40;;
78895;SDS011;68284;59.124;37.910;2023-07-31T06:27:30;6.93;;;3.75;;
78895;SDS011;68284;59.124;37.910;2023-07-31T06:29:57;4.80;;;3.00;;
78895;SDS011;68284;59.124;37.910;2023-07-31T06:32:24;6.85;;;3.92;;
78895;SDS011;68284;59.124;37.910;2023-07-31T06:34:50;7.40;;;3.08;;
78895;SDS011;68284;59.124;37.910;2023-07-31T06:37:20;7.25;;;4.70;;
78895;SDS011;68284;59.124;37.910;2023-07-31T06:39:46;7.68;;;3.97;;
78895;SDS011;68284;59.124;37.910;2023-07-31T06:42:13;20.30;;;5.95;;
78895;SDS011;68284;59.124;37.910;2023-07-31T06:44:39;15.93;;;6.85;;
78895;SDS011;68284;59.124;37.910;2023-07-31T06:47:07;13.05;;;5.57;;
78895;SDS011;68284;59.124;37.910;2023-07-31T06:49:40;8.57;;;5.10;;
78895;SDS011;68284;59.124;37.910;2023-07-31T06:52:06;16.73;;;7.75;;
78895;SDS011;68284;59.124;37.910;2023-07-31T06:54:36;17.45;;;9.32;;
78895;SDS011;68284;59.124;37.910;2023-07-31T06:57:04;19.80;;;9.45;;
78895;SDS011;68284;59.124;37.910;2023-07-31T06:59:37;18.30;;;10.43;;
78895;SDS011;68284;59.124;37.910;2023-07-31T07:02:07;22.73;;;11.75;;
78895;SDS011;68284;59.124;37.910;2023-07-31T07:04:40;26.35;;;10.90;;
78895;SDS011;68284;59.124;37.910;2023-07-31T07:07:06;26.40;;;12.20;;
78895;SDS011;68284;59.124;37.910;2023-07-31T07:09:34;33.25;;;15.50;;
78895;SDS011;68284;59.124;37.910;2023-07-31T07:12:04;22.75;;;14.13;;
78895;SDS011;68284;59.124;37.910;2023-07-31T07:14:30;24.92;;;12.80;;
78895;SDS011;68284;59.124;37.910;2023-07-31T07:16:56;25.52;;;12.82;;
78895;SDS011;68284;59.124;37.910;2023-07-31T07:19:22;20.50;;;12.90;;
78895;SDS011;68284;59.124;37.910;2023-07-31T07:21:49;21.80;;;12.10;;
78895;SDS011;68284;59.124;37.910;2023-07-31T07:24:18;12.55;;;7.03;;
78895;SDS011;68284;59.124;37.910;2023-07-31T07:26:45;18.33;;;9.18;;
78895;SDS011;68284;59.124;37.910;2023-07-31T07:29:11;18.88;;;10.15;;
78895;SDS011;68284;59.124;37.910;2023-07-31T07:31:37;17.85;;;8.40;;
78895;SDS011;68284;59.124;37.910;2023-07-31T07:34:03;16.10;;;9.88;;
78895;SDS011;68284;59.124;37.910;2023-07-31T07:36:31;15.73;;;9.30;;
78895;SDS011;68284;59.124;37.910;2023-07-31T07:38:58;16.65;;;8.63;;
78895;SDS011;68284;59.124;37.910;2023-07-31T07:41:25;19.23;;;10.60;;
78895;SDS011;68284;59.124;37.910;2023-07-31T07:43:51;17.63;;;10.15;;
78895;SDS011;68284;59.124;37.910;2023-07-31T07:46:17;25.58;;;12.95;;
78895;SDS011;68284;59.124;37.910;2023-07-31T07:48:43;35.20;;;17.75;;
78895;SDS011;68284;59.124;37.910;2023-07-31T07:51:17;26.60;;;13.63;;
78895;SDS011;68284;59.124;37.910;2023-07-31T07:53:43;18.40;;;9.02;;
78895;SDS011;68284;59.124;37.910;2023-07-31T07:56:33;14.90;;;7.15;;
78895;SDS011;68284;59.124;37.910;2023-07-31T07:59:00;10.05;;;5.88;;
78895;SDS011;68284;59.124;37.910;2023-07-31T08:01:29;10.60;;;6.50;;
78895;SDS011;68284;59.124;37.910;2023-07-31T08:03:57;7.65;;;4.95;;
78895;SDS011;68284;59.124;37.910;2023-07-31T08:06:24;9.50;;;4.68;;
78895;SDS011;68284;59.124;37.910;2023-07-31T08:08:55;30.20;;;13.68;;
78895;SDS011;68284;59.124;37.910;2023-07-31T08:11:41;24.08;;;13.20;;
78895;SDS011;68284;59.124;37.910;2023-07-31T08:14:10;25.27;;;14.93;;
78895;SDS011;68284;59.124;37.910;2023-07-31T08:16:37;18.27;;;9.43;;
78895;SDS011;68284;59.124;37.910;2023-07-31T08:19:06;14.82;;;7.82;;
78895;SDS011;68284;59.124;37.910;2023-07-31T08:24:04;18.85;;;9.68;;
78895;SDS011;68284;59.124;37.910;2023-07-31T08:26:33;21.23;;;10.88;;
78895;SDS011;68284;59.124;37.910;2023-07-31T08:28:59;16.92;;;8.50;;
78895;SDS011;68284;59.124;37.910;2023-07-31T08:31:25;11.18;;;5.82;;
78895;SDS011;68284;59.124;37.910;2023-07-31T08:33:55;8.98;;;4.93;;
78895;SDS011;68284;59.124;37.910;2023-07-31T08:36:24;6.18;;;4.32;;
78895;SDS011;68284;59.124;37.910;2023-07-31T08:38:51;5.30;;;3.78;;
78895;SDS011;68284;59.124;37.910;2023-07-31T08:41:19;8.75;;;4.25;;
78895;SDS011;68284;59.124;37.910;2023-07-31T08:43:51;6.00;;;2.92;;
78895;SDS011;68284;59.124;37.910;2023-07-31T08:46:23;3.65;;;2.90;;
78895;SDS011;68284;59.124;37.910;2023-07-31T08:48:50;6.05;;;4.15;;
78895;SDS011;68284;59.124;37.910;2023-07-31T08:51:18;5.10;;;4.15;;
78895;SDS011;68284;59.124;37.910;2023-07-31T08:53:45;5.32;;;3.00;;
78895;SDS011;68284;59.124;37.910;2023-07-31T08:56:11;5.85;;;4.05;;
78895;SDS011;68284;59.124;37.910;2023-07-31T08:58:40;4.65;;;2.78;;
78895;SDS011;68284;59.124;37.910;2023-07-31T09:01:09;4.35;;;3.95;;
78895;SDS011;68284;59.124;37.910;2023-07-31T09:03:39;3.58;;;3.28;;
78895;SDS011;68284;59.124;37.910;2023-07-31T09:06:07;2.90;;;2.60;;
78895;SDS011;68284;59.124;37.910;2023-07-31T09:09:06;24.10;;;10.98;;
78895;SDS011;68284;59.124;37.910;2023-07-31T09:11:37;28.48;;;11.18;;
78895;SDS011;68284;59.124;37.910;2023-07-31T09:14:19;11.15;;;6.00;;
78895;SDS011;68284;59.124;37.910;2023-07-31T09:17:04;11.93;;;4.13;;
78895;SDS011;68284;59.124;37.910;2023-07-31T09:19:57;7.55;;;3.60;;
78895;SDS011;68284;59.124;37.910;2023-07-31T09:22:40;12.40;;;6.05;;
78895;SDS011;68284;59.124;37.910;2023-07-31T09:25:16;8.55;;;4.97;;
78895;SDS011;68284;59.124;37.910;2023-07-31T09:28:16;5.28;;;3.22;;
78895;SDS011;68284;59.124;37.910;2023-07-31T09:31:05;3.75;;;3.42;;
78895;SDS011;68284;59.124;37.910;2023-07-31T09:33:59;7.50;;;3.13;;
78895;SDS011;68284;59.124;37.910;2023-07-31T09:36:48;5.78;;;2.53;;
78895;SDS011;68284;59.124;37.910;2023-07-31T09:39:20;3.20;;;2.08;;
78895;SDS011;68284;59.124;37.910;2023-07-31T09:41:53;6.28;;;2.35;;
78895;SDS011;68284;59.124;37.910;2023-07-31T09:44:20;4.65;;;2.10;;
78895;SDS011;68284;59.124;37.910;2023-07-31T09:46:50;4.43;;;2.30;;
78895;SDS011;68284;59.124;37.910;2023-07-31T09:49:33;3.13;;;2.42;;
78895;SDS011;68284;59.124;37.910;2023-07-31T09:52:15;5.55;;;4.30;;
78895;SDS011;68284;59.124;37.910;2023-07-31T09:54:53;6.85;;;5.85;;
78895;SDS011;68284;59.124;37.910;2023-07-31T09:57:22;5.35;;;2.38;;
78895;SDS011;68284;59.124;37.910;2023-07-31T09:59:58;3.67;;;3.30;;
78895;SDS011;68284;59.124;37.910;2023-07-31T10:02:27;8.63;;;3.72;;
78895;SDS011;68284;59.124;37.910;2023-07-31T10:04:57;6.13;;;2.97;;
78895;SDS011;68284;59.124;37.910;2023-07-31T10:10:23;4.40;;;4.00;;
78895;SDS011;68284;59.124;37.910;2023-07-31T10:12:52;7.75;;;3.20;;
78895;SDS011;68284;59.124;37.910;2023-07-31T10:15:23;5.95;;;3.00;;
78895;SDS011;68284;59.124;37.910;2023-07-31T10:17:52;4.40;;;2.70;;
78895;SDS011;68284;59.124;37.910;2023-07-31T10:20:22;3.47;;;3.17;;
78895;SDS011;68284;59.124;37.910;2023-07-31T10:22:54;4.03;;;3.45;;
78895;SDS011;68284;59.124;37.910;2023-07-31T10:25:51;5.45;;;3.75;;
78895;SDS011;68284;59.124;37.910;2023-07-31T10:31:18;5.65;;;3.42;;
78895;SDS011;68284;59.124;37.910;2023-07-31T10:34:41;4.20;;;3.80;;
78895;SDS011;68284;59.124;37.910;2023-07-31T10:39:59;4.63;;;2.53;;
78895;SDS011;68284;59.124;37.910;2023-07-31T10:42:46;2.90;;;2.70;;
78895;SDS011;68284;59.124;37.910;2023-07-31T10:48:24;2.22;;;1.90;;
78895;SDS011;68284;59.124;37.910;2023-07-31T10:50:54;3.80;;;3.42;;
78895;SDS011;68284;59.124;37.910;2023-07-31T10:53:22;4.93;;;4.40;;
78895;SDS011;68284;59.124;37.910;2023-07-31T10:55:57;4.65;;;3.75;;
78895;SDS011;68284;59.124;37.910;2023-07-31T10:58:25;5.75;;;2.80;;
78895;SDS011;68284;59.124;37.910;2023-07-31T11:01:02;4.20;;;3.45;;
78895;SDS011;68284;59.124;37.910;2023-07-31T11:03:43;5.03;;;3.17;;
78895;SDS011;68284;59.124;37.910;2023-07-31T11:06:12;12.23;;;7.78;;
78895;SDS011;68284;59.124;37.910;2023-07-31T11:08:46;15.18;;;7.88;;
78895;SDS011;68284;59.124;37.910;2023-07-31T11:11:18;12.27;;;7.28;;
78895;SDS011;68284;59.124;37.910;2023-07-31T11:13:49;10.27;;;6.85;;
78895;SDS011;68284;59.124;37.910;2023-07-31T11:16:35;5.90;;;2.88;;
78895;SDS011;68284;59.124;37.910;2023-07-31T11:19:10;10.07;;;6.38;;
78895;SDS011;68284;59.124;37.910;2023-07-31T11:21:36;7.63;;;3.70;;
78895;SDS011;68284;59.124;37.910;2023-07-31T11:26:55;5.15;;;4.30;;
78895;SDS011;68284;59.124;37.910;2023-07-31T11:29:23;8.45;;;2.72;;
78895;SDS011;68284;59.124;37.910;2023-07-31T11:31:56;7.20;;;3.72;;
78895;SDS011;68284;59.124;37.910;2023-07-31T11:34:29;8.07;;;3.67;;
78895;SDS011;68284;59.124;37.910;2023-07-31T11:36:57;6.07;;;3.85;;
78895;SDS011;68284;59.124;37.910;2023-07-31T11:42:34;7.85;;;4.10;;
78895;SDS011;68284;59.124;37.910;2023-07-31T11:45:05;12.82;;;3.40;;
78895;SDS011;68284;59.124;37.910;2023-07-31T11:47:33;5.15;;;4.00;;
78895;SDS011;68284;59.124;37.910;2023-07-31T11:50:04;11.32;;;5.35;;
78895;SDS011;68284;59.124;37.910;2023-07-31T11:52:38;10.70;;;4.95;;
78895;SDS011;68284;59.124;37.910;2023-07-31T11:55:16;6.88;;;3.72;;
78895;SDS011;68284;59.124;37.910;2023-07-31T11:57:47;11.23;;;3.38;;
78895;SDS011;68284;59.124;37.910;2023-07-31T12:00:14;4.55;;;3.60;;
78895;SDS011;68284;59.124;37.910;2023-07-31T12:02:46;4.15;;;3.30;;
78895;SDS011;68284;59.124;37.910;2023-07-31T12:08:12;6.32;;;2.60;;
78895;SDS011;68284;59.124;37.910;2023-07-31T12:10:39;5.68;;;3.65;;
78895;SDS011;68284;59.124;37.910;2023-07-31T12:13:12;6.90;;;3.53;;
78895;SDS011;68284;59.124;37.910;2023-07-31T12:15:55;8.85;;;3.95;;
78895;SDS011;68284;59.124;37.910;2023-07-31T12:18:42;6.63;;;2.80;;
78895;SDS011;68284;59.124;37.910;2023-07-31T12:24:11;11.77;;;4.32;;
78895;SDS011;68284;59.124;37.910;2023-07-31T12:26:39;8.50;;;3.80;;
78895;SDS011;68284;59.124;37.910;2023-07-31T12:29:52;6.45;;;3.60;;
78895;SDS011;68284;59.124;37.910;2023-07-31T12:32:22;8.63;;;3.67;;
78895;SDS011;68284;59.124;37.910;2023-07-31T12:35:01;13.07;;;4.00;;
78895;SDS011;68284;59.124;37.910;2023-07-31T12:37:36;12.57;;;4.53;;
78895;SDS011;68284;59.124;37.910;2023-07-31T12:40:37;6.82;;;3.90;;
78895;SDS011;68284;59.124;37.910;2023-07-31T12:43:06;8.85;;;4.07;;
78895;SDS011;68284;59.124;37.910;2023-07-31T12:45:33;10.70;;;3.53;;
78895;SDS011;68284;59.124;37.910;2023-07-31T12:48:01;7.57;;;3.40;;
78895;SDS011;68284;59.124;37.910;2023-07-31T12:50:31;7.93;;;3.80;;
78895;SDS011;68284;59.124;37.910;2023-07-31T12:52:57;9.23;;;3.00;;
78895;SDS011;68284;59.124;37.910;2023-07-31T12:55:27;5.65;;;3.42;;
78895;SDS011;68284;59.124;37.910;2023-07-31T12:58:29;7.25;;;3.75;;
78895;SDS011;68284;59.124;37.910;2023-07-31T13:01:03;11.20;;;3.30;;
78895;SDS011;68284;59.124;37.910;2023-07-31T13:04:20;6.03;;;2.60;;
78895;SDS011;68284;59.124;37.910;2023-07-31T13:06:47;9.25;;;3.50;;
78895;SDS011;68284;59.124;37.910;2023-07-31T13:09:13;6.13;;;3.20;;
78895;SDS011;68284;59.124;37.910;2023-07-31T13:11:46;7.70;;;3.40;;
78895;SDS011;68284;59.124;37.910;2023-07-31T13:14:16;8.73;;;2.85;;
78895;SDS011;68284;59.124;37.910;2023-07-31T13:16:42;9.15;;;3.17;;
78895;SDS011;68284;59.124;37.910;2023-07-31T13:19:09;7.25;;;2.88;;
78895;SDS011;68284;59.124;37.910;2023-07-31T13:21:54;8.13;;;3.38;;
78895;SDS011;68284;59.124;37.910;2023-07-31T13:24:22;8.43;;;3.00;;
78895;SDS011;68284;59.124;37.910;2023-07-31T13:26:55;5.45;;;2.67;;
78895;SDS011;68284;59.124;37.910;2023-07-31T13:29:27;5.07;;;2.33;;
78895;SDS011;68284;59.124;37.910;2023-07-31T13:31:56;6.75;;;2.90;;
78895;SDS011;68284;59.124;37.910;2023-07-31T13:34:23;5.28;;;2.75;;
78895;SDS011;68284;59.124;37.910;2023-07-31T13:36:49;6.38;;;2.70;;
78895;SDS011;68284;59.124;37.910;2023-07-31T13:39:16;5.65;;;2.70;;
78895;SDS011;68284;59.124;37.910;2023-07-31T13:41:42;4.50;;;2.53;;
78895;SDS011;68284;59.124;37.910;2023-07-31T13:44:09;5.80;;;2.60;;
78895;SDS011;68284;59.124;37.910;2023-07-31T13:46:42;4.03;;;2.83;;
78895;SDS011;68284;59.124;37.910;2023-07-31T13:49:10;6.35;;;2.70;;
78895;SDS011;68284;59.124;37.910;2023-07-31T13:51:38;10.38;;;3.13;;
78895;SDS011;68284;59.124;37.910;2023-07-31T13:54:07;6.18;;;2.70;;
78895;SDS011;68284;59.124;37.910;2023-07-31T13:59:04;5.90;;;2.60;;
78895;SDS011;68284;59.124;37.910;2023-07-31T14:01:32;6.57;;;2.40;;
78895;SDS011;68284;59.124;37.910;2023-07-31T14:04:08;7.80;;;3.10;;
78895;SDS011;68284;59.124;37.910;2023-07-31T14:06:49;10.25;;;3.15;;
78895;SDS011;68284;59.124;37.910;2023-07-31T14:09:18;5.68;;;3.13;;
78895;SDS011;68284;59.124;37.910;2023-07-31T14:11:44;8.52;;;3.65;;
78895;SDS011;68284;59.124;37.910;2023-07-31T14:14:11;9.63;;;3.65;;
78895;SDS011;68284;59.124;37.910;2023-07-31T14:16:39;9.30;;;3.88;;
78895;SDS011;68284;59.124;37.910;2023-07-31T14:19:07;10.25;;;3.38;;
78895;SDS011;68284;59.124;37.910;2023-07-31T14:21:35;7.55;;;2.95;;
78895;SDS011;68284;59.124;37.910;2023-07-31T14:24:03;11.57;;;3.90;;
78895;SDS011;68284;59.124;37.910;2023-07-31T14:26:30;11.82;;;3.42;;
78895;SDS011;68284;59.124;37.910;2023-07-31T14:29:00;13.88;;;3.30;;
78895;SDS011;68284;59.124;37.910;2023-07-31T14:31:36;9.38;;;3.30;;
78895;SDS011;68284;59.124;37.910;2023-07-31T14:34:25;7.95;;;3.20;;
78895;SDS011;68284;59.124;37.910;2023-07-31T14:36:52;6.15;;;3.17;;
78895;SDS011;68284;59.124;37.910;2023-07-31T14:39:19;12.20;;;4.20;;
78895;SDS011;68284;59.124;37.910;2023-07-31T14:41:47;8.23;;;4.47;;
78895;SDS011;68284;59.124;37.910;2023-07-31T14:44:16;7.63;;;3.42;;
78895;SDS011;68284;59.124;37.910;2023-07-31T14:46:45;6.15;;;3.85;;
78895;SDS011;68284;59.124;37.910;2023-07-31T14:49:14;6.50;;;4.05;;
78895;SDS011;68284;59.124;37.910;2023-07-31T14:51:40;6.45;;;3.25;;
78895;SDS011;68284;59.124;37.910;2023-07-31T14:54:07;7.38;;;3.28;;
78895;SDS011;68284;59.124;37.910;2023-07-31T14:56:36;8.77;;;4.07;;
78895;SDS011;68284;59.124;37.910;2023-07-31T14:59:15;10.02;;;4.40;;
78895;SDS011;68284;59.124;37.910;2023-07-31T15:01:42;9.73;;;4.82;;
78895;SDS011;68284;59.124;37.910;2023-07-31T15:04:09;4.90;;;2.85;;
78895;SDS011;68284;59.124;37.910;2023-07-31T15:06:37;4.60;;;2.60;;
78895;SDS011;68284;59.124;37.910;2023-07-31T15:09:19;7.03;;;2.72;;
78895;SDS011;68284;59.124;37.910;2023-07-31T15:11:52;4.10;;;2.63;;
78895;SDS011;68284;59.124;37.910;2023-07-31T15:14:29;4.97;;;2.85;;
78895;SDS011;68284;59.124;37.910;2023-07-31T15:17:11;5.22;;;3.90;;
78895;SDS011;68284;59.124;37.910;2023-07-31T15:19:41;4.88;;;2.78;;
78895;SDS011;68284;59.124;37.910;2023-07-31T15:22:21;4.05;;;2.92;;
78895;SDS011;68284;59.124;37.910;2023-07-31T15:24:48;4.57;;;3.92;;
78895;SDS011;68284;59.124;37.910;2023-07-31T15:27:30;7.10;;;4.07;;